sensor_id;sensor_type;location;lat;lon;timestamp;P1;durP1;ratioP1;P2;durP2;ratioP2
15915;SDS011;8057;47.830;-3.870;2023-06-22T00:02:30;5.83;;;5.10;;
15915;SDS011;8057;47.830;-3.870;2023-06-22T00:06:39;6.23;;;5.63;;
15915;SDS011;8057;47.830;-3.870;2023-06-22T00:10:50;5.73;;;5.07;;
15915;SDS011;8057;47.830;-3.870;2023-06-22T00:14:59;6.90;;;4.97;;
15915;SDS011;8057;47.830;-3.870;2023-06-22T00:19:10;5.67;;;5.27;;
15915;SDS011;8057;47.830;-3.870;2023-06-22T00:23:20;5.27;;;4.87;;
15915;SDS011;8057;47.830;-3.870;2023-06-22T00:27:30;5.27;;;4.87;;
15915;SDS011;8057;47.830;-3.870;2023-06-22T00:31:40;5.63;;;5.13;;
15915;SDS011;8057;47.830;-3.870;2023-06-22T00:35:51;5.50;;;5.00;;
15915;SDS011;8057;47.830;-3.870;2023-06-22T00:40:01;5.80;;;5.30;;
15915;SDS011;8057;47.830;-3.870;2023-06-22T00:44:11;5.80;;;5.20;;
15915;SDS011;8057;47.830;-3.870;2023-06-22T00:48:21;5.97;;;5.10;;
15915;SDS011;8057;47.830;-3.870;2023-06-22T00:52:32;5.97;;;5.47;;
15915;SDS011;8057;47.830;-3.870;2023-06-22T00:56:44;5.37;;;4.97;;
15915;SDS011;8057;47.830;-3.870;2023-06-22T01:01:10;5.17;;;4.77;;
15915;SDS011;8057;47.830;-3.870;2023-06-22T01:05:21;5.50;;;5.00;;
15915;SDS011;8057;47.830;-3.870;2023-06-22T01:09:34;5.47;;;4.97;;
15915;SDS011;8057;47.830;-3.870;2023-06-22T01:13:51;4.87;;;4.57;;
15915;SDS011;8057;47.830;-3.870;2023-06-22T01:18:06;4.73;;;4.40;;
15915;SDS011;8057;47.830;-3.870;2023-06-22T01:22:18;4.70;;;4.17;;
15915;SDS011;8057;47.830;-3.870;2023-06-22T01:26:37;4.37;;;4.07;;
15915;SDS011;8057;47.830;-3.870;2023-06-22T01:31:07;3.90;;;3.70;;
15915;SDS011;8057;47.830;-3.870;2023-06-22T01:35:18;4.67;;;4.27;;
15915;SDS011;8057;47.830;-3.870;2023-06-22T01:39:37;5.27;;;4.10;;
15915;SDS011;8057;47.830;-3.870;2023-06-22T01:43:47;4.23;;;3.90;;
15915;SDS011;8057;47.830;-3.870;2023-06-22T01:47:58;3.80;;;3.50;;
15915;SDS011;8057;47.830;-3.870;2023-06-22T01:52:11;4.10;;;3.80;;
15915;SDS011;8057;47.830;-3.870;2023-06-22T01:56:20;3.97;;;3.63;;
15915;SDS011;8057;47.830;-3.870;2023-06-22T02:00:31;3.80;;;3.50;;
15915;SDS011;8057;47.830;-3.870;2023-06-22T02:05:08;4.20;;;3.80;;
15915;SDS011;8057;47.830;-3.870;2023-06-22T02:09:44;3.83;;;3.50;;
15915;SDS011;8057;47.830;-3.870;2023-06-22T02:13:57;3.70;;;3.40;;
15915;SDS011;8057;47.830;-3.870;2023-06-22T02:18:07;4.07;;;3.63;;
15915;SDS011;8057;47.830;-3.870;2023-06-22T02:22:19;4.10;;;3.70;;
15915;SDS011;8057;47.830;-3.870;2023-06-22T02:26:29;4.00;;;3.70;;
15915;SDS011;8057;47.830;-3.870;2023-06-22T02:30:39;3.50;;;3.20;;
15915;SDS011;8057;47.830;-3.870;2023-06-22T02:34:49;4.30;;;3.70;;
15915;SDS011;8057;47.830;-3.870;2023-06-22T02:39:00;4.30;;;3.90;;
15915;SDS011;8057;47.830;-3.870;2023-06-22T02:43:10;4.23;;;3.57;;
15915;SDS011;8057;47.830;-3.870;2023-06-22T02:47:20;4.30;;;3.83;;
15915;SDS011;8057;47.830;-3.870;2023-06-22T02:51:32;5.63;;;5.13;;
15915;SDS011;8057;47.830;-3.870;2023-06-22T02:55:44;5.10;;;4.70;;
15915;SDS011;8057;47.830;-3.870;2023-06-22T02:59:57;6.17;;;5.00;;
15915;SDS011;8057;47.830;-3.870;2023-06-22T03:04:06;5.40;;;4.90;;
15915;SDS011;8057;47.830;-3.870;2023-06-22T03:08:17;4.83;;;4.43;;
15915;SDS011;8057;47.830;-3.870;2023-06-22T03:12:28;5.20;;;4.80;;
15915;SDS011;8057;47.830;-3.870;2023-06-22T03:16:37;4.57;;;4.00;;
15915;SDS011;8057;47.830;-3.870;2023-06-22T03:20:48;4.70;;;4.30;;
15915;SDS011;8057;47.830;-3.870;2023-06-22T03:24:57;4.83;;;4.37;;
15915;SDS011;8057;47.830;-3.870;2023-06-22T03:29:08;4.27;;;3.90;;
15915;SDS011;8057;47.830;-3.870;2023-06-22T03:33:18;5.17;;;4.50;;
15915;SDS011;8057;47.830;-3.870;2023-06-22T03:37:28;5.07;;;4.67;;
15915;SDS011;8057;47.830;-3.870;2023-06-22T03:41:37;4.47;;;3.97;;
15915;SDS011;8057;47.830;-3.870;2023-06-22T03:45:48;4.63;;;4.33;;
15915;SDS011;8057;47.830;-3.870;2023-06-22T03:49:58;5.00;;;4.60;;
15915;SDS011;8057;47.830;-3.870;2023-06-22T03:54:08;4.30;;;4.00;;
15915;SDS011;8057;47.830;-3.870;2023-06-22T03:58:17;4.27;;;3.97;;
15915;SDS011;8057;47.830;-3.870;2023-06-22T04:02:29;4.37;;;3.97;;
15915;SDS011;8057;47.830;-3.870;2023-06-22T04:06:39;4.80;;;4.40;;
15915;SDS011;8057;47.830;-3.870;2023-06-22T04:10:48;5.60;;;5.10;;
15915;SDS011;8057;47.830;-3.870;2023-06-22T04:14:58;5.67;;;5.17;;
15915;SDS011;8057;47.830;-3.870;2023-06-22T04:19:09;5.30;;;4.90;;
15915;SDS011;8057;47.830;-3.870;2023-06-22T04:23:24;5.90;;;5.40;;
15915;SDS011;8057;47.830;-3.870;2023-06-22T04:27:34;6.27;;;5.77;;
15915;SDS011;8057;47.830;-3.870;2023-06-22T04:31:48;6.87;;;5.83;;
15915;SDS011;8057;47.830;-3.870;2023-06-22T04:35:59;5.80;;;5.27;;
15915;SDS011;8057;47.830;-3.870;2023-06-22T04:40:09;8.30;;;6.50;;
15915;SDS011;8057;47.830;-3.870;2023-06-22T04:44:34;7.43;;;6.73;;
15915;SDS011;8057;47.830;-3.870;2023-06-22T04:48:44;6.70;;;6.20;;
15915;SDS011;8057;47.830;-3.870;2023-06-22T04:52:55;7.97;;;6.93;;
15915;SDS011;8057;47.830;-3.870;2023-06-22T04:57:05;6.40;;;5.90;;
15915;SDS011;8057;47.830;-3.870;2023-06-22T05:01:20;7.30;;;6.60;;
15915;SDS011;8057;47.830;-3.870;2023-06-22T05:05:30;7.60;;;6.90;;
15915;SDS011;8057;47.830;-3.870;2023-06-22T05:09:41;7.27;;;6.67;;
15915;SDS011;8057;47.830;-3.870;2023-06-22T05:13:51;7.20;;;6.50;;
15915;SDS011;8057;47.830;-3.870;2023-06-22T05:18:01;8.60;;;6.87;;
15915;SDS011;8057;47.830;-3.870;2023-06-22T05:22:12;7.57;;;6.80;;
15915;SDS011;8057;47.830;-3.870;2023-06-22T05:26:26;8.23;;;7.43;;
15915;SDS011;8057;47.830;-3.870;2023-06-22T05:30:36;7.00;;;6.40;;
15915;SDS011;8057;47.830;-3.870;2023-06-22T05:34:46;7.90;;;7.20;;
15915;SDS011;8057;47.830;-3.870;2023-06-22T05:39:00;7.97;;;7.23;;
15915;SDS011;8057;47.830;-3.870;2023-06-22T05:43:27;8.80;;;8.00;;
15915;SDS011;8057;47.830;-3.870;2023-06-22T05:47:37;8.83;;;8.03;;
15915;SDS011;8057;47.830;-3.870;2023-06-22T05:51:47;8.60;;;7.80;;
15915;SDS011;8057;47.830;-3.870;2023-06-22T05:55:57;8.13;;;7.37;;
15915;SDS011;8057;47.830;-3.870;2023-06-22T06:00:08;9.57;;;8.57;;
15915;SDS011;8057;47.830;-3.870;2023-06-22T06:04:22;9.47;;;8.57;;
15915;SDS011;8057;47.830;-3.870;2023-06-22T06:08:34;9.63;;;8.73;;
15915;SDS011;8057;47.830;-3.870;2023-06-22T06:12:44;9.40;;;8.50;;
15915;SDS011;8057;47.830;-3.870;2023-06-22T06:16:55;9.37;;;8.47;;
15915;SDS011;8057;47.830;-3.870;2023-06-22T06:21:05;9.23;;;8.43;;
15915;SDS011;8057;47.830;-3.870;2023-06-22T06:25:15;9.27;;;8.27;;
15915;SDS011;8057;47.830;-3.870;2023-06-22T06:29:28;8.50;;;7.60;;
15915;SDS011;8057;47.830;-3.870;2023-06-22T06:33:39;9.10;;;8.20;;
15915;SDS011;8057;47.830;-3.870;2023-06-22T06:37:49;9.40;;;8.40;;
15915;SDS011;8057;47.830;-3.870;2023-06-22T06:42:00;8.13;;;7.33;;
15915;SDS011;8057;47.830;-3.870;2023-06-22T06:46:10;8.57;;;7.77;;
15915;SDS011;8057;47.830;-3.870;2023-06-22T06:50:21;8.20;;;7.50;;
15915;SDS011;8057;47.830;-3.870;2023-06-22T06:54:32;7.33;;;6.60;;
15915;SDS011;8057;47.830;-3.870;2023-06-22T06:58:41;7.80;;;6.93;;
15915;SDS011;8057;47.830;-3.870;2023-06-22T07:02:52;7.33;;;6.73;;
15915;SDS011;8057;47.830;-3.870;2023-06-22T07:07:04;6.50;;;6.00;;
15915;SDS011;8057;47.830;-3.870;2023-06-22T07:15:55;6.60;;;6.10;;
15915;SDS011;8057;47.830;-3.870;2023-06-22T07:20:18;6.67;;;5.90;;
15915;SDS011;8057;47.830;-3.870;2023-06-22T07:35:59;6.37;;;5.87;;
15915;SDS011;8057;47.830;-3.870;2023-06-22T07:40:42;6.30;;;5.80;;
15915;SDS011;8057;47.830;-3.870;2023-06-22T07:44:55;6.17;;;5.67;;
15915;SDS011;8057;47.830;-3.870;2023-06-22T07:53:33;6.40;;;5.73;;
15915;SDS011;8057;47.830;-3.870;2023-06-22T08:02:21;5.70;;;5.20;;
15915;SDS011;8057;47.830;-3.870;2023-06-22T08:06:48;5.70;;;5.07;;
15915;SDS011;8057;47.830;-3.870;2023-06-22T08:11:10;5.73;;;5.23;;
15915;SDS011;8057;47.830;-3.870;2023-06-22T08:15:31;5.53;;;5.13;;
15915;SDS011;8057;47.830;-3.870;2023-06-22T08:19:48;5.30;;;4.83;;
15915;SDS011;8057;47.830;-3.870;2023-06-22T08:24:07;5.53;;;5.03;;
15915;SDS011;8057;47.830;-3.870;2023-06-22T08:28:36;6.17;;;4.83;;
15915;SDS011;8057;47.830;-3.870;2023-06-22T08:32:51;5.00;;;4.60;;
15915;SDS011;8057;47.830;-3.870;2023-06-22T08:37:04;4.90;;;4.50;;
15915;SDS011;8057;47.830;-3.870;2023-06-22T08:41:14;4.47;;;4.07;;
15915;SDS011;8057;47.830;-3.870;2023-06-22T08:45:26;4.40;;;4.10;;
15915;SDS011;8057;47.830;-3.870;2023-06-22T08:49:36;4.60;;;4.20;;
15915;SDS011;8057;47.830;-3.870;2023-06-22T08:53:46;4.53;;;4.13;;
15915;SDS011;8057;47.830;-3.870;2023-06-22T08:57:57;4.70;;;4.30;;
15915;SDS011;8057;47.830;-3.870;2023-06-22T09:02:19;4.37;;;3.80;;
15915;SDS011;8057;47.830;-3.870;2023-06-22T09:06:29;4.30;;;3.90;;
15915;SDS011;8057;47.830;-3.870;2023-06-22T09:11:03;3.63;;;3.33;;
15915;SDS011;8057;47.830;-3.870;2023-06-22T09:15:45;3.70;;;3.40;;
15915;SDS011;8057;47.830;-3.870;2023-06-22T09:30:28;4.37;;;3.97;;
15915;SDS011;8057;47.830;-3.870;2023-06-22T09:34:38;3.83;;;3.33;;
15915;SDS011;8057;47.830;-3.870;2023-06-22T09:39:25;3.57;;;3.37;;
15915;SDS011;8057;47.830;-3.870;2023-06-22T09:44:01;4.53;;;4.13;;
15915;SDS011;8057;47.830;-3.870;2023-06-22T09:48:27;3.80;;;3.50;;
15915;SDS011;8057;47.830;-3.870;2023-06-22T09:52:40;3.47;;;3.17;;
15915;SDS011;8057;47.830;-3.870;2023-06-22T09:57:21;3.27;;;3.07;;
15915;SDS011;8057;47.830;-3.870;2023-06-22T10:01:34;3.47;;;3.23;;
15915;SDS011;8057;47.830;-3.870;2023-06-22T10:05:48;4.47;;;3.67;;
15915;SDS011;8057;47.830;-3.870;2023-06-22T10:09:58;2.83;;;2.57;;
15915;SDS011;8057;47.830;-3.870;2023-06-22T10:14:08;3.50;;;3.17;;
15915;SDS011;8057;47.830;-3.870;2023-06-22T10:18:28;2.93;;;2.70;;
15915;SDS011;8057;47.830;-3.870;2023-06-22T12:59:22;3.87;;;3.57;;
15915;SDS011;8057;47.830;-3.870;2023-06-22T13:04:10;3.43;;;3.13;;
15915;SDS011;8057;47.830;-3.870;2023-06-22T13:08:27;3.37;;;3.10;;
15915;SDS011;8057;47.830;-3.870;2023-06-22T13:13:34;3.00;;;2.80;;
15915;SDS011;8057;47.830;-3.870;2023-06-22T13:32:39;3.97;;;3.53;;
15915;SDS011;8057;47.830;-3.870;2023-06-22T13:36:58;6.93;;;3.40;;
15915;SDS011;8057;47.830;-3.870;2023-06-22T13:46:13;3.57;;;3.27;;
15915;SDS011;8057;47.830;-3.870;2023-06-22T13:50:46;3.87;;;3.17;;
15915;SDS011;8057;47.830;-3.870;2023-06-22T13:55:01;4.87;;;3.37;;
15915;SDS011;8057;47.830;-3.870;2023-06-22T13:59:16;3.30;;;3.00;;
15915;SDS011;8057;47.830;-3.870;2023-06-22T14:03:40;3.47;;;3.17;;
15915;SDS011;8057;47.830;-3.870;2023-06-22T14:23:23;2.97;;;2.67;;
15915;SDS011;8057;47.830;-3.870;2023-06-22T14:28:25;3.77;;;2.87;;
15915;SDS011;8057;47.830;-3.870;2023-06-22T14:32:47;3.37;;;2.90;;
15915;SDS011;8057;47.830;-3.870;2023-06-22T14:37:23;3.10;;;2.70;;
15915;SDS011;8057;47.830;-3.870;2023-06-22T14:41:48;5.40;;;2.80;;
15915;SDS011;8057;47.830;-3.870;2023-06-22T14:46:56;3.00;;;2.70;;
15915;SDS011;8057;47.830;-3.870;2023-06-22T14:51:27;3.40;;;3.10;;
15915;SDS011;8057;47.830;-3.870;2023-06-22T14:56:02;4.23;;;2.80;;
15915;SDS011;8057;47.830;-3.870;2023-06-22T15:05:55;6.43;;;3.33;;
15915;SDS011;8057;47.830;-3.870;2023-06-22T15:10:20;4.07;;;2.97;;
15915;SDS011;8057;47.830;-3.870;2023-06-22T15:14:41;3.37;;;2.87;;
15915;SDS011;8057;47.830;-3.870;2023-06-22T15:18:52;6.17;;;3.37;;
15915;SDS011;8057;47.830;-3.870;2023-06-22T15:23:10;3.03;;;2.83;;
15915;SDS011;8057;47.830;-3.870;2023-06-22T15:27:39;5.03;;;3.40;;
15915;SDS011;8057;47.830;-3.870;2023-06-22T15:31:51;6.57;;;4.00;;
15915;SDS011;8057;47.830;-3.870;2023-06-22T15:36:21;3.90;;;2.80;;
15915;SDS011;8057;47.830;-3.870;2023-06-22T15:40:59;3.83;;;3.27;;
15915;SDS011;8057;47.830;-3.870;2023-06-22T15:50:09;4.17;;;3.10;;
15915;SDS011;8057;47.830;-3.870;2023-06-22T15:54:43;4.67;;;3.27;;
15915;SDS011;8057;47.830;-3.870;2023-06-22T15:59:18;4.70;;;3.10;;
15915;SDS011;8057;47.830;-3.870;2023-06-22T16:14:16;4.27;;;2.83;;
15915;SDS011;8057;47.830;-3.870;2023-06-22T16:23:32;4.17;;;2.80;;
15915;SDS011;8057;47.830;-3.870;2023-06-22T16:28:07;3.10;;;2.80;;
15915;SDS011;8057;47.830;-3.870;2023-06-22T16:32:33;2.90;;;2.33;;
15915;SDS011;8057;47.830;-3.870;2023-06-22T17:34:38;3.80;;;2.20;;
15915;SDS011;8057;47.830;-3.870;2023-06-22T18:31:31;3.90;;;2.80;;
15915;SDS011;8057;47.830;-3.870;2023-06-22T18:35:43;3.20;;;2.70;;
15915;SDS011;8057;47.830;-3.870;2023-06-22T18:39:53;3.00;;;2.70;;
15915;SDS011;8057;47.830;-3.870;2023-06-22T18:44:04;2.97;;;2.70;;
15915;SDS011;8057;47.830;-3.870;2023-06-22T18:48:24;3.10;;;2.80;;
15915;SDS011;8057;47.830;-3.870;2023-06-22T18:52:35;2.93;;;2.73;;
15915;SDS011;8057;47.830;-3.870;2023-06-22T18:56:51;2.77;;;2.47;;
15915;SDS011;8057;47.830;-3.870;2023-06-22T19:01:14;2.70;;;2.50;;
15915;SDS011;8057;47.830;-3.870;2023-06-22T19:05:38;3.00;;;2.80;;
15915;SDS011;8057;47.830;-3.870;2023-06-22T19:14:29;3.03;;;2.53;;
15915;SDS011;8057;47.830;-3.870;2023-06-22T19:18:39;3.10;;;2.90;;
15915;SDS011;8057;47.830;-3.870;2023-06-22T19:22:54;3.93;;;3.30;;
15915;SDS011;8057;47.830;-3.870;2023-06-22T19:27:05;3.40;;;2.73;;
15915;SDS011;8057;47.830;-3.870;2023-06-22T19:32:16;3.20;;;3.00;;
15915;SDS011;8057;47.830;-3.870;2023-06-22T19:36:30;3.30;;;3.00;;
15915;SDS011;8057;47.830;-3.870;2023-06-22T19:40:40;4.87;;;3.10;;
15915;SDS011;8057;47.830;-3.870;2023-06-22T19:44:50;3.80;;;3.37;;
15915;SDS011;8057;47.830;-3.870;2023-06-22T19:49:01;3.73;;;3.20;;
15915;SDS011;8057;47.830;-3.870;2023-06-22T19:53:11;5.10;;;3.40;;
15915;SDS011;8057;47.830;-3.870;2023-06-22T19:57:22;3.03;;;2.83;;
15915;SDS011;8057;47.830;-3.870;2023-06-22T20:01:32;3.40;;;3.10;;
15915;SDS011;8057;47.830;-3.870;2023-06-22T20:05:44;3.40;;;3.10;;
15915;SDS011;8057;47.830;-3.870;2023-06-22T20:10:04;3.10;;;2.83;;
15915;SDS011;8057;47.830;-3.870;2023-06-22T20:14:19;3.13;;;2.83;;
15915;SDS011;8057;47.830;-3.870;2023-06-22T20:18:32;3.50;;;3.20;;
15915;SDS011;8057;47.830;-3.870;2023-06-22T20:22:44;3.47;;;3.17;;
15915;SDS011;8057;47.830;-3.870;2023-06-22T20:26:54;3.20;;;3.00;;
15915;SDS011;8057;47.830;-3.870;2023-06-22T20:31:16;3.20;;;2.90;;
15915;SDS011;8057;47.830;-3.870;2023-06-22T20:35:31;3.60;;;3.23;;
15915;SDS011;8057;47.830;-3.870;2023-06-22T20:39:43;3.37;;;2.90;;
15915;SDS011;8057;47.830;-3.870;2023-06-22T20:43:55;2.73;;;2.53;;
15915;SDS011;8057;47.830;-3.870;2023-06-22T20:48:08;3.40;;;3.03;;
15915;SDS011;8057;47.830;-3.870;2023-06-22T20:52:44;4.07;;;3.67;;
15915;SDS011;8057;47.830;-3.870;2023-06-22T20:56:56;3.23;;;2.93;;
15915;SDS011;8057;47.830;-3.870;2023-06-22T21:01:06;3.47;;;3.17;;
15915;SDS011;8057;47.830;-3.870;2023-06-22T21:05:30;3.40;;;3.10;;
15915;SDS011;8057;47.830;-3.870;2023-06-22T21:10:22;3.63;;;3.33;;
15915;SDS011;8057;47.830;-3.870;2023-06-22T21:14:34;3.77;;;3.47;;
15915;SDS011;8057;47.830;-3.870;2023-06-22T21:18:45;3.40;;;3.10;;
15915;SDS011;8057;47.830;-3.870;2023-06-22T21:22:57;2.97;;;2.77;;
15915;SDS011;8057;47.830;-3.870;2023-06-22T21:27:10;3.37;;;3.07;;
15915;SDS011;8057;47.830;-3.870;2023-06-22T21:36:15;3.70;;;3.47;;
15915;SDS011;8057;47.830;-3.870;2023-06-22T21:40:26;3.80;;;3.50;;
15915;SDS011;8057;47.830;-3.870;2023-06-22T21:44:37;4.70;;;3.67;;
15915;SDS011;8057;47.830;-3.870;2023-06-22T21:48:47;3.63;;;3.33;;
15915;SDS011;8057;47.830;-3.870;2023-06-22T21:52:58;4.47;;;4.07;;
15915;SDS011;8057;47.830;-3.870;2023-06-22T21:57:09;4.77;;;4.03;;
15915;SDS011;8057;47.830;-3.870;2023-06-22T22:01:19;4.37;;;3.97;;
15915;SDS011;8057;47.830;-3.870;2023-06-22T22:05:28;4.63;;;4.17;;
15915;SDS011;8057;47.830;-3.870;2023-06-22T22:09:40;4.97;;;4.47;;
15915;SDS011;8057;47.830;-3.870;2023-06-22T22:13:49;4.07;;;3.70;;
15915;SDS011;8057;47.830;-3.870;2023-06-22T22:17:59;4.20;;;3.93;;
15915;SDS011;8057;47.830;-3.870;2023-06-22T22:22:11;4.93;;;4.43;;
15915;SDS011;8057;47.830;-3.870;2023-06-22T22:26:22;4.33;;;4.00;;
15915;SDS011;8057;47.830;-3.870;2023-06-22T22:30:31;4.53;;;4.20;;
15915;SDS011;8057;47.830;-3.870;2023-06-22T22:34:41;4.30;;;4.00;;
15915;SDS011;8057;47.830;-3.870;2023-06-22T22:38:50;5.97;;;4.73;;
15915;SDS011;8057;47.830;-3.870;2023-06-22T22:43:01;4.20;;;3.63;;
15915;SDS011;8057;47.830;-3.870;2023-06-22T22:47:11;5.37;;;4.87;;
15915;SDS011;8057;47.830;-3.870;2023-06-22T22:51:20;4.47;;;4.17;;
15915;SDS011;8057;47.830;-3.870;2023-06-22T22:55:30;4.60;;;4.30;;
15915;SDS011;8057;47.830;-3.870;2023-06-22T22:59:41;4.70;;;4.30;;
15915;SDS011;8057;47.830;-3.870;2023-06-22T23:03:51;4.50;;;4.20;;
15915;SDS011;8057;47.830;-3.870;2023-06-22T23:08:02;4.57;;;4.27;;
15915;SDS011;8057;47.830;-3.870;2023-06-22T23:12:13;4.87;;;4.47;;
15915;SDS011;8057;47.830;-3.870;2023-06-22T23:16:24;4.83;;;4.50;;
15915;SDS011;8057;47.830;-3.870;2023-06-22T23:20:34;4.53;;;4.23;;
15915;SDS011;8057;47.830;-3.870;2023-06-22T23:24:44;4.70;;;4.30;;
15915;SDS011;8057;47.830;-3.870;2023-06-22T23:28:54;5.07;;;4.57;;
15915;SDS011;8057;47.830;-3.870;2023-06-22T23:33:04;5.17;;;4.67;;
15915;SDS011;8057;47.830;-3.870;2023-06-22T23:37:15;6.43;;;5.30;;
15915;SDS011;8057;47.830;-3.870;2023-06-22T23:41:25;5.30;;;4.80;;
15915;SDS011;8057;47.830;-3.870;2023-06-22T23:45:34;5.00;;;4.70;;
15915;SDS011;8057;47.830;-3.870;2023-06-22T23:49:45;5.50;;;5.10;;
15915;SDS011;8057;47.830;-3.870;2023-06-22T23:53:54;5.60;;;5.10;;
15915;SDS011;8057;47.830;-3.870;2023-06-22T23:58:04;5.37;;;4.97;;
